Time;durP1;ratioP1;P1;durP2;ratioP2;P2;SDS_P1;SDS_P2;PMS_P1;PMS_P2;Temp;Humidity;BMP_temperature;BMP_pressure;BME280_temperature;BME280_humidity;BME280_pressure;Samples;Min_cycle;Max_cycle;Signal;HPM_P1;HPM_P2
2023/01/07 00:00:45;;;;;;;;;;;;;;;13.29;94.48;99863.88;5069773;28;20425;-51
2023/01/07 00:03:10;;;;;;;;;;;;;;;13.09;94.25;99861.81;5070507;28;19915;-51
2023/01/07 00:05:35;;;;;;;;;;;;;;;13.17;92.87;99867.63;5068220;28;20625;-53
2023/01/07 00:08:01;;;;;;;;;;;;;;;13.27;91.49;99888.91;5067780;28;20381;-51
2023/01/07 00:10:26;;;;;;;;;;;;;;;12.88;94.08;99865.84;5068208;28;19916;-53
2023/01/07 00:12:53;;;;;;;;;;;;;;;13.56;88.04;99896.69;5068648;28;19916;-52
2023/01/07 00:15:18;;;;;;;;;;;;;;;13.51;92.43;99871.84;5067199;28;19921;-53
2023/01/07 00:17:43;;;;;;;;;;;;;;;13.59;94.34;99862.97;5069433;28;19951;-54
2023/01/07 00:20:09;;;;;;;;;;;;;;;13.74;97.58;99845.25;5069157;28;19926;-51
2023/01/07 00:22:34;;;;;;;;;;;;;;;13.67;100.00;99815.28;5069319;28;19916;-53
2023/01/07 00:24:59;;;;;;;;;;;;;;;13.34;100.00;99795.59;5069220;28;19995;-53
2023/01/07 00:27:24;;;;;;;;;;;;;;;13.64;100.00;99798.13;5067817;28;20075;-53
2023/01/07 00:29:50;;;;;;;;;;;;;;;13.54;100.00;99776.84;5068683;28;19948;-54
2023/01/07 00:32:15;;;;;;;;;;;;;;;13.74;100.00;99781.38;5068549;28;19923;-54
2023/01/07 00:34:40;;;;;;;;;;;;;;;13.52;100.00;99767.44;5065989;28;19916;-54
2023/01/07 00:39:49;;;;;;;;;;;;;;;13.21;100.00;99747.69;5067720;28;19927;-52
2023/01/07 00:44:58;;;;;;;;;;;;;;;13.34;100.00;99761.09;5065588;28;19985;-51
2023/01/07 00:47:24;;;;;;;;;;;;;;;13.46;100.00;99757.31;5064590;28;20556;-53
2023/01/07 00:49:49;;;;;;;;;;;;;;;12.98;100.00;99731.13;5063004;28;19920;-52
2023/01/07 00:52:14;;;;;;;;;;;;;;;13.20;100.00;99745.97;5066127;28;19943;-52
2023/01/07 00:54:39;;;;;;;;;;;;;;;13.38;100.00;99745.44;5067553;28;19916;-53
2023/01/07 00:57:05;;;;;;;;;;;;;;;13.20;100.00;99730.44;5070176;28;20477;-53
2023/01/07 00:59:30;;;;;;;;;;;;;;;13.52;100.00;99741.56;5064167;28;20648;-52
2023/01/07 01:01:55;;;;;;;;;;;;;;;13.87;100.00;99731.81;5065645;28;19917;-50
2023/01/07 01:04:20;;;;;;;;;;;;;;;13.49;100.00;99695.94;5064402;28;20911;-52
2023/01/07 01:06:45;;;;;;;;;;;;;;;13.65;100.00;99696.25;5066190;28;19912;-52
2023/01/07 01:09:11;;;;;;;;;;;;;;;13.52;100.00;99689.81;5067108;28;19981;-52
2023/01/07 01:11:36;;;;;;;;;;;;;;;13.49;100.00;99689.91;5068316;28;20015;-53
2023/01/07 01:14:02;;;;;;;;;;;;;;;13.42;100.00;99673.75;5068595;28;20432;-52
2023/01/07 01:16:27;;;;;;;;;;;;;;;13.49;100.00;99685.56;5068949;28;20309;-53
2023/01/07 01:18:52;;;;;;;;;;;;;;;13.24;100.00;99682.91;5067630;28;19954;-53
2023/01/07 01:21:18;;;;;;;;;;;;;;;12.97;100.00;99674.28;5070597;28;20658;-53
2023/01/07 01:23:43;;;;;;;;;;;;;;;13.39;100.00;99700.56;5068998;28;20777;-52
2023/01/07 01:26:10;;;;;;;;;;;;;;;12.91;100.00;99701.19;5069379;28;20208;-52
2023/01/07 01:28:35;;;;;;;;;;;;;;;13.23;100.00;99727.78;5068480;28;19981;-51
2023/01/07 01:31:00;;;;;;;;;;;;;;;12.85;100.00;99728.94;5069332;28;19928;-51
2023/01/07 01:33:25;;;;;;;;;;;;;;;13.10;100.00;99736.81;5070169;28;19928;-52
2023/01/07 01:35:51;;;;;;;;;;;;;;;13.20;100.00;99745.97;5058418;28;19917;-51
2023/01/07 01:38:16;;;;;;;;;;;;;;;13.42;100.00;99745.34;5067455;28;20369;-54
2023/01/07 01:40:41;;;;;;;;;;;;;;;13.11;100.00;99734.19;5068978;28;20384;-54
2023/01/07 01:43:25;;;;;;;;;;;;;;;13.44;100.00;99743.56;5069147;28;19916;-53
2023/01/07 01:45:50;;;;;;;;;;;;;;;12.94;100.00;99729.50;5069416;28;19947;-55
2023/01/07 01:48:15;;;;;;;;;;;;;;;12.97;100.00;99734.59;5067077;28;20377;-54
2023/01/07 01:50:43;;;;;;;;;;;;;;;13.34;100.00;99743.84;5071481;28;20293;-51
2023/01/07 01:53:17;;;;;;;;;;;;;;;13.16;100.00;99724.53;5071527;28;19920;-52
2023/01/07 01:55:44;;;;;;;;;;;;;;;12.84;100.00;99722.94;5072956;28;19943;-55
2023/01/07 01:58:10;;;;;;;;;;;;;;;12.61;100.00;99730.50;5072197;28;19920;-55
2023/01/07 02:00:36;;;;;;;;;;;;;;;12.79;100.00;99763.56;5071107;28;19920;-52
2023/01/07 02:03:01;;;;;;;;;;;;;;;13.42;100.00;99771.22;5072609;28;19917;-51
2023/01/07 02:05:30;;;;;;;;;;;;;;;12.60;100.00;99733.97;5072541;28;19923;-54
2023/01/07 02:07:56;;;;;;;;;;;;;;;13.14;100.00;99772.03;5072230;28;20647;-52
2023/01/07 02:10:22;;;;;;;;;;;;;;;13.10;100.00;99747.16;5071728;28;20054;-54
2023/01/07 02:13:02;;;;;;;;;;;;;;;13.23;100.00;99745.91;5071565;28;19924;-54
2023/01/07 02:15:30;;;;;;;;;;;;;;;13.15;100.00;99724.56;5074624;28;19967;-54
2023/01/07 02:18:04;;;;;;;;;;;;;;;13.45;100.00;99724.53;5071979;28;19961;-54
2023/01/07 02:20:29;;;;;;;;;;;;;;;13.50;100.00;99694.19;5070864;28;19920;-53
2023/01/07 02:23:03;;;;;;;;;;;;;;;13.46;100.00;99675.34;5071909;28;20310;-52
2023/01/07 02:25:47;;;;;;;;;;;;;;;13.40;100.00;99654.84;5072592;28;20404;-53
2023/01/07 02:28:21;;;;;;;;;;;;;;;13.17;100.00;99643.47;5072412;28;20438;-55
2023/01/07 02:31:04;;;;;;;;;;;;;;;13.27;100.00;99656.94;5072630;28;19958;-51
2023/01/07 02:33:29;;;;;;;;;;;;;;;13.23;100.00;99650.19;5072284;28;20296;-53
2023/01/07 02:36:01;;;;;;;;;;;;;;;12.89;100.00;99640.91;5071286;28;19916;-54
2023/01/07 02:38:30;;;;;;;;;;;;;;;13.06;100.00;99660.22;5070206;28;19920;-54
2023/01/07 02:41:01;;;;;;;;;;;;;;;12.59;100.00;99670.25;5073325;28;20353;-53
2023/01/07 02:43:29;;;;;;;;;;;;;;;12.95;100.00;99705.38;5069533;28;20003;-53
2023/01/07 02:46:02;;;;;;;;;;;;;;;13.14;100.00;99707.38;5071576;28;19920;-54
2023/01/07 02:48:27;;;;;;;;;;;;;;;12.91;100.00;99693.41;5068148;28;19979;-52
2023/01/07 02:50:54;;;;;;;;;;;;;;;12.33;100.00;99685.63;5070533;28;20279;-53
2023/01/07 02:53:20;;;;;;;;;;;;;;;13.03;100.00;99724.97;5071686;28;20490;-54
2023/01/07 02:55:50;;;;;;;;;;;;;;;12.63;100.00;99703.72;5071121;28;19924;-54
2023/01/07 02:58:18;;;;;;;;;;;;;;;12.61;100.00;99709.81;5065647;28;19934;-54
2023/01/07 03:00:52;;;;;;;;;;;;;;;13.09;100.00;99724.75;5067655;28;19924;-54
2023/01/07 03:03:20;;;;;;;;;;;;;;;12.93;100.00;99712.31;5067026;28;19923;-54
2023/01/07 03:06:18;;;;;;;;;;;;;;;13.39;100.00;99705.75;5067325;28;19916;-54
2023/01/07 03:08:52;;;;;;;;;;;;;;;13.57;100.00;99662.03;5032320;28;20011;-54
2023/01/07 03:11:18;;;;;;;;;;;;;;;13.78;100.00;99632.81;5067241;28;19931;-54
2023/01/07 03:14:04;;;;;;;;;;;;;;;13.75;100.00;99603.59;5064815;28;19920;-54
2023/01/07 03:16:33;;;;;;;;;;;;;;;13.46;100.00;99586.53;5063969;28;19963;-54
2023/01/07 03:18:59;;;;;;;;;;;;;;;13.44;100.00;99557.28;5065338;28;19928;-55
2023/01/07 03:21:24;;;;;;;;;;;;;;;12.53;100.00;99555.88;5065480;28;20304;-54
2023/01/07 03:23:51;;;;;;;;;;;;;;;13.00;100.00;99606.09;5064018;28;20016;-54
2023/01/07 03:26:17;;;;;;;;;;;;;;;12.64;100.00;99601.22;5063399;28;19919;-53
2023/01/07 03:28:42;;;;;;;;;;;;;;;12.69;100.00;99625.19;5063758;28;19924;-54
2023/01/07 03:31:08;;;;;;;;;;;;;;;12.96;100.00;99639.81;5064265;28;20580;-54
2023/01/07 03:33:42;;;;;;;;;;;;;;;12.57;100.00;99626.41;5064684;28;19920;-54
2023/01/07 03:36:08;;;;;;;;;;;;;;;12.97;100.00;99645.84;5064565;28;19930;-54
2023/01/07 03:38:33;;;;;;;;;;;;;;;13.02;100.00;99637.94;5064658;28;19924;-54
2023/01/07 03:40:58;;;;;;;;;;;;;;;12.43;100.00;99624.22;5064025;28;20451;-53
2023/01/07 03:43:23;;;;;;;;;;;;;;;12.73;100.00;99632.78;5066512;28;20442;-52
2023/01/07 03:45:49;;;;;;;;;;;;;;;12.64;100.00;99642.56;5068963;28;19963;-54
2023/01/07 03:48:14;;;;;;;;;;;;;;;12.02;100.00;99634.00;5063026;28;19959;-54
2023/01/07 03:50:39;;;;;;;;;;;;;;;12.66;100.00;99670.06;5065691;28;19920;-54
2023/01/07 03:53:05;;;;;;;;;;;;;;;12.80;100.00;99666.22;5065759;28;19980;-55
2023/01/07 03:55:30;;;;;;;;;;;;;;;12.52;100.00;99667.88;5064651;28;19959;-54
2023/01/07 03:57:55;;;;;;;;;;;;;;;12.20;100.00;99670.50;5065758;28;19931;-55
2023/01/07 04:00:21;;;;;;;;;;;;;;;12.00;100.00;99691.75;5063880;28;19985;-55
2023/01/07 04:02:46;;;;;;;;;;;;;;;11.73;99.77;99699.28;5064259;28;19920;-55
2023/01/07 04:05:11;;;;;;;;;;;;;;;12.54;93.77;99741.03;5065743;28;20055;-55
2023/01/07 04:07:36;;;;;;;;;;;;;;;12.31;93.02;99743.38;5063994;28;20010;-55
2023/01/07 04:10:02;;;;;;;;;;;;;;;11.93;92.83;99728.03;5065057;28;19966;-55
2023/01/07 04:12:28;;;;;;;;;;;;;;;12.05;92.24;99737.19;5064337;28;20043;-55
2023/01/07 04:14:53;;;;;;;;;;;;;;;11.94;91.38;99731.44;5064721;28;19928;-54
2023/01/07 04:17:18;;;;;;;;;;;;;;;12.00;88.77;99733.03;5065435;28;20440;-55
2023/01/07 04:19:44;;;;;;;;;;;;;;;12.25;86.57;99752.16;5066106;28;20517;-55
2023/01/07 04:22:09;;;;;;;;;;;;;;;11.90;88.95;99730.66;5069267;28;19920;-55
2023/01/07 04:24:34;;;;;;;;;;;;;;;12.29;88.82;99746.03;5064263;28;19942;-55
2023/01/07 04:27:00;;;;;;;;;;;;;;;12.20;92.67;99724.75;5065139;28;19928;-56
2023/01/07 04:29:25;;;;;;;;;;;;;;;12.19;88.44;99733.38;5062549;28;19916;-55
2023/01/07 04:31:50;;;;;;;;;;;;;;;11.78;85.78;99727.53;5063457;28;19920;-56
2023/01/07 04:34:15;;;;;;;;;;;;;;;11.96;83.65;99749.50;5065366;28;19925;-55
2023/01/07 04:36:40;;;;;;;;;;;;;;;11.65;84.32;99738.16;5064435;28;20533;-55
2023/01/07 04:39:06;;;;;;;;;;;;;;;12.17;79.37;99772.16;5069111;28;19924;-56
2023/01/07 04:41:31;;;;;;;;;;;;;;;12.19;87.78;99741.13;5070470;28;19985;-54
2023/01/07 04:43:56;;;;;;;;;;;;;;;12.29;85.13;99743.44;5066989;28;19969;-55
2023/01/07 04:46:21;;;;;;;;;;;;;;;12.76;89.77;99730.06;5069805;28;19920;-55
2023/01/07 04:48:47;;;;;;;;;;;;;;;12.51;94.38;99686.84;5064156;28;20519;-55
2023/01/07 04:51:12;;;;;;;;;;;;;;;12.00;97.36;99669.34;5065329;28;19920;-55
2023/01/07 04:53:37;;;;;;;;;;;;;;;12.23;93.93;99685.94;5063291;28;21222;-55
2023/01/07 04:56:05;;;;;;;;;;;;;;;11.72;94.79;99676.91;5065360;28;21025;-55
2023/01/07 04:58:30;;;;;;;;;;;;;;;12.21;90.86;99695.47;5065219;28;19924;-54
2023/01/07 05:00:57;;;;;;;;;;;;;;;12.02;91.19;99695.97;5065617;28;20367;-54
2023/01/07 05:03:22;;;;;;;;;;;;;;;11.81;90.59;99688.75;5065749;28;20258;-55
2023/01/07 05:05:47;;;;;;;;;;;;;;;12.00;85.98;99713.22;5066104;28;19930;-55
2023/01/07 05:08:13;;;;;;;;;;;;;;;11.85;88.27;99703.25;5065160;28;20355;-55
2023/01/07 05:10:38;;;;;;;;;;;;;;;12.16;88.20;99712.78;5067146;28;20315;-55
2023/01/07 05:13:04;;;;;;;;;;;;;;;11.78;90.46;99681.94;5063085;28;19916;-55
2023/01/07 05:15:30;;;;;;;;;;;;;;;12.45;89.57;99701.66;5063412;28;19916;-55
2023/01/07 05:17:55;;;;;;;;;;;;;;;12.21;93.35;99670.47;5068276;28;20724;-55
2023/01/07 05:20:20;;;;;;;;;;;;;;;12.17;94.24;99662.88;5067916;28;20417;-55
2023/01/07 05:22:45;;;;;;;;;;;;;;;12.02;92.73;99654.66;5071112;28;20289;-54
2023/01/07 05:25:10;;;;;;;;;;;;;;;12.35;96.21;99657.19;5070342;28;20483;-55
2023/01/07 05:27:36;;;;;;;;;;;;;;;12.35;100.00;99621.84;5069295;28;20094;-55
2023/01/07 05:30:01;;;;;;;;;;;;;;;12.36;100.00;99612.38;5069406;28;19920;-55
2023/01/07 05:32:26;;;;;;;;;;;;;;;12.21;100.00;99602.50;5069483;28;20415;-55
2023/01/07 05:34:51;;;;;;;;;;;;;;;12.23;100.00;99590.41;5069553;28;20023;-55
2023/01/07 05:37:17;;;;;;;;;;;;;;;12.51;100.00;99601.59;5070361;28;19949;-55
2023/01/07 05:39:42;;;;;;;;;;;;;;;11.97;100.00;99558.41;5071245;28;19924;-54
2023/01/07 05:42:07;;;;;;;;;;;;;;;12.39;100.00;99581.28;5068802;28;19992;-55
2023/01/07 05:44:32;;;;;;;;;;;;;;;12.34;100.00;99578.00;5065457;28;21470;-55
2023/01/07 05:46:58;;;;;;;;;;;;;;;12.47;100.00;99566.41;5069814;28;20551;-56
2023/01/07 05:49:23;;;;;;;;;;;;;;;13.03;100.00;99557.75;5068827;28;19948;-55
2023/01/07 05:51:48;;;;;;;;;;;;;;;12.11;100.00;99507.25;5071685;28;19916;-55
2023/01/07 05:54:13;;;;;;;;;;;;;;;12.25;100.00;99511.16;5073913;28;19920;-55
2023/01/07 05:56:38;;;;;;;;;;;;;;;12.52;100.00;99514.56;5071823;28;19931;-55
2023/01/07 05:59:04;;;;;;;;;;;;;;;12.77;100.00;99499.13;5071457;28;19931;-55
2023/01/07 06:01:29;;;;;;;;;;;;;;;12.71;100.00;99489.00;5072250;28;20284;-56
2023/01/07 06:03:54;;;;;;;;;;;;;;;12.39;100.00;99462.47;5072550;28;19920;-56
2023/01/07 06:06:19;;;;;;;;;;;;;;;12.69;100.00;99459.78;5070034;28;19916;-54
2023/01/07 06:08:45;;;;;;;;;;;;;;;12.69;100.00;99454.63;5068058;28;19924;-56
2023/01/07 06:11:10;;;;;;;;;;;;;;;12.64;100.00;99425.53;5069628;28;19927;-56
2023/01/07 06:13:35;;;;;;;;;;;;;;;12.52;100.00;99417.28;5071095;28;19928;-55
2023/01/07 06:16:02;;;;;;;;;;;;;;;12.45;100.00;99408.06;5060200;28;19939;-54
2023/01/07 06:18:27;;;;;;;;;;;;;;;12.51;100.00;99409.56;5072290;28;19933;-56
2023/01/07 06:20:52;;;;;;;;;;;;;;;12.80;100.00;99408.59;5072624;28;19917;-56
2023/01/07 06:23:17;;;;;;;;;;;;;;;12.68;100.00;99396.06;5072742;28;20237;-56
2023/01/07 06:25:42;;;;;;;;;;;;;;;12.42;100.00;99379.72;5072197;28;20387;-55
2023/01/07 06:28:08;;;;;;;;;;;;;;;12.08;100.00;99369.66;5074068;28;20471;-57
2023/01/07 06:30:33;;;;;;;;;;;;;;;12.53;100.00;99390.53;5072644;28;20361;-55
2023/01/07 06:32:59;;;;;;;;;;;;;;;12.21;100.00;99385.59;5071349;28;19931;-53
2023/01/07 06:35:24;;;;;;;;;;;;;;;11.66;100.00;99382.97;5072505;28;19964;-55
2023/01/07 06:37:49;;;;;;;;;;;;;;;12.05;100.00;99417.06;5071615;28;19998;-56
2023/01/07 06:40:14;;;;;;;;;;;;;;;12.16;100.00;99433.94;5071699;28;19927;-55
2023/01/07 06:42:40;;;;;;;;;;;;;;;12.36;100.00;99428.97;5073258;28;19927;-55
2023/01/07 06:45:05;;;;;;;;;;;;;;;11.56;100.00;99397.88;5071030;28;19962;-56
2023/01/07 06:47:30;;;;;;;;;;;;;;;12.28;100.00;99431.00;5071418;28;19912;-55
2023/01/07 06:49:56;;;;;;;;;;;;;;;12.26;100.00;99419.84;5069899;28;19920;-55
2023/01/07 06:52:21;;;;;;;;;;;;;;;11.80;100.00;99401.47;5072063;28;19931;-56
2023/01/07 06:54:46;;;;;;;;;;;;;;;11.65;100.00;99420.81;5072632;28;20638;-56
2023/01/07 06:57:11;;;;;;;;;;;;;;;11.87;100.00;99441.69;5072005;28;20008;-56
2023/01/07 06:59:37;;;;;;;;;;;;;;;12.16;100.00;99446.84;5071403;28;20013;-54
2023/01/07 07:02:02;;;;;;;;;;;;;;;11.93;100.00;99438.09;5072141;28;19986;-56
2023/01/07 07:04:27;;;;;;;;;;;;;;;12.07;100.00;99445.44;5072509;28;19928;-56
2023/01/07 07:06:52;;;;;;;;;;;;;;;12.20;100.00;99427.78;5072355;28;20589;-55
2023/01/07 07:09:18;;;;;;;;;;;;;;;12.25;100.00;99418.19;5070637;28;20317;-55
2023/01/07 07:11:43;;;;;;;;;;;;;;;11.61;100.00;99401.19;5072826;28;20004;-57
2023/01/07 07:14:08;;;;;;;;;;;;;;;11.90;100.00;99423.53;5071007;28;19924;-56
2023/01/07 07:16:34;;;;;;;;;;;;;;;11.89;100.00;99421.03;5067839;28;20588;-56
2023/01/07 07:18:59;;;;;;;;;;;;;;;11.79;100.00;99414.41;5066077;28;20281;-55
2023/01/07 07:21:24;;;;;;;;;;;;;;;12.06;100.00;99421.31;5068321;28;19927;-56
2023/01/07 07:23:50;;;;;;;;;;;;;;;11.69;100.00;99406.94;5067993;28;19916;-56
2023/01/07 07:26:15;;;;;;;;;;;;;;;12.07;100.00;99417.88;5070369;28;19923;-56
2023/01/07 07:28:41;;;;;;;;;;;;;;;10.97;100.00;99397.84;5070464;28;20455;-55
2023/01/07 07:31:07;;;;;;;;;;;;;;;11.46;100.00;99430.84;5070519;28;19916;-56
2023/01/07 07:33:32;;;;;;;;;;;;;;;11.36;100.00;99436.28;5069525;28;20313;-57
2023/01/07 07:35:57;;;;;;;;;;;;;;;11.46;100.00;99432.56;5070288;28;19973;-56
2023/01/07 07:38:22;;;;;;;;;;;;;;;11.42;100.00;99416.31;5067969;28;19971;-57
2023/01/07 07:40:48;;;;;;;;;;;;;;;11.16;100.00;99406.75;5071903;28;19967;-55
2023/01/07 07:43:13;;;;;;;;;;;;;;;11.72;100.00;99424.94;5070167;28;19931;-57
2023/01/07 07:45:39;;;;;;;;;;;;;;;11.53;100.00;99408.28;5069020;28;19978;-56
2023/01/07 07:48:06;;;;;;;;;;;;;;;11.88;100.00;99424.47;5067358;28;20008;-57
2023/01/07 07:50:31;;;;;;;;;;;;;;;12.08;100.00;99429.03;5068639;28;20340;-57
2023/01/07 07:52:56;;;;;;;;;;;;;;;11.17;100.00;99382.66;5071192;28;20011;-57
2023/01/07 07:55:21;;;;;;;;;;;;;;;11.58;100.00;99415.88;5066757;28;19923;-56
2023/01/07 07:57:47;;;;;;;;;;;;;;;11.56;100.00;99413.34;5065824;28;20021;-56
2023/01/07 08:00:12;;;;;;;;;;;;;;;11.59;100.00;99408.13;5065785;28;19924;-56
2023/01/07 08:02:37;;;;;;;;;;;;;;;11.54;100.00;99399.69;5065586;28;19924;-56
2023/01/07 08:05:03;;;;;;;;;;;;;;;11.42;100.00;99395.69;5064935;28;19930;-55
2023/01/07 08:07:28;;;;;;;;;;;;;;;11.43;100.00;99397.41;5065509;28;19920;-56
2023/01/07 08:09:53;;;;;;;;;;;;;;;11.49;100.00;99410.13;5066063;28;19923;-56
2023/01/07 08:12:19;;;;;;;;;;;;;;;11.43;100.00;99394.81;5065329;28;20040;-57
2023/01/07 08:14:44;;;;;;;;;;;;;;;11.70;100.00;99408.66;5063831;28;20420;-56
2023/01/07 08:17:09;;;;;;;;;;;;;;;11.86;100.00;99410.75;5064464;28;19923;-57
2023/01/07 08:19:34;;;;;;;;;;;;;;;12.04;100.00;99420.56;5063758;28;19924;-57
2023/01/07 08:22:00;;;;;;;;;;;;;;;12.36;100.00;99410.91;5064282;28;19916;-56
2023/01/07 08:24:25;;;;;;;;;;;;;;;11.97;100.00;99356.25;5065343;28;20381;-56
2023/01/07 08:26:54;;;;;;;;;;;;;;;12.74;100.00;99355.34;5064925;28;19928;-54
2023/01/07 08:29:19;;;;;;;;;;;;;;;12.42;100.00;99320.31;5063439;28;20621;-56
2023/01/07 08:31:44;;;;;;;;;;;;;;;12.48;100.00;99307.19;5064885;28;19931;-57
2023/01/07 08:34:09;;;;;;;;;;;;;;;12.31;100.00;99284.50;5063422;28;20288;-56
2023/01/07 08:36:35;;;;;;;;;;;;;;;12.53;100.00;99294.94;5065212;28;19964;-55
2023/01/07 08:39:00;;;;;;;;;;;;;;;12.37;100.00;99286.06;5063575;28;19921;-56
2023/01/07 08:41:25;;;;;;;;;;;;;;;12.12;100.00;99281.72;5064916;28;19928;-55
2023/01/07 08:43:51;;;;;;;;;;;;;;;13.33;100.00;99297.22;5062136;28;20003;-56
2023/01/07 08:46:17;;;;;;;;;;;;;;;12.47;100.00;99256.41;5064898;28;19924;-56
2023/01/07 08:48:42;;;;;;;;;;;;;;;12.79;100.00;99263.91;5063297;28;20364;-57
2023/01/07 08:51:08;;;;;;;;;;;;;;;12.41;100.00;99253.22;5067000;28;19958;-55
2023/01/07 08:53:33;;;;;;;;;;;;;;;12.34;100.00;99242.28;5068776;28;19925;-59
2023/01/07 08:55:58;;;;;;;;;;;;;;;12.48;100.00;99249.53;5068334;28;19921;-55
2023/01/07 08:58:24;;;;;;;;;;;;;;;12.75;100.00;99230.44;5067688;28;19932;-52
2023/01/07 09:00:50;;;;;;;;;;;;;;;12.53;100.00;99224.38;5066653;28;19923;-55
2023/01/07 09:03:15;;;;;;;;;;;;;;;13.20;100.00;99228.72;5068059;28;19920;-51
2023/01/07 09:05:40;;;;;;;;;;;;;;;12.71;100.00;99194.44;5065409;28;20015;-56
2023/01/07 09:08:05;;;;;;;;;;;;;;;12.69;100.00;99198.81;5065085;28;20409;-56
2023/01/07 09:10:31;;;;;;;;;;;;;;;13.21;100.00;99189.03;5064233;28;19920;-56
2023/01/07 09:12:56;;;;;;;;;;;;;;;13.20;100.00;99184.75;5064818;28;19955;-56
2023/01/07 09:15:21;;;;;;;;;;;;;;;12.98;100.00;99152.00;5066025;28;19944;-56
2023/01/07 09:17:46;;;;;;;;;;;;;;;13.37;100.00;99161.69;5067461;28;19951;-55
2023/01/07 09:20:12;;;;;;;;;;;;;;;13.64;100.00;99142.47;5069449;28;19917;-55
2023/01/07 09:22:37;;;;;;;;;;;;;;;13.42;100.00;99129.63;5070015;28;19920;-56
2023/01/07 09:25:03;;;;;;;;;;;;;;;13.91;100.00;99138.72;5064423;28;20008;-55
2023/01/07 09:27:28;;;;;;;;;;;;;;;13.46;100.00;99089.78;5064955;28;20293;-56
2023/01/07 09:29:53;;;;;;;;;;;;;;;13.48;100.00;99087.94;5061877;28;19927;-55
2023/01/07 09:32:19;;;;;;;;;;;;;;;13.70;100.00;99088.72;5057610;28;20015;-55
2023/01/07 09:34:44;;;;;;;;;;;;;;;13.58;100.00;99073.72;5064344;28;20323;-55
2023/01/07 09:37:10;;;;;;;;;;;;;;;14.13;100.00;99062.66;5064614;28;20541;-56
2023/01/07 09:39:35;;;;;;;;;;;;;;;13.95;100.00;99041.03;5062409;28;19924;-55
2023/01/07 09:42:00;;;;;;;;;;;;;;;13.62;100.00;99027.88;5065118;28;19920;-55
2023/01/07 09:44:44;;;;;;;;;;;;;;;14.44;100.00;99036.19;5059880;28;19927;-55
2023/01/07 09:47:09;;;;;;;;;;;;;;;13.74;100.00;99007.44;5063398;28;19968;-56
2023/01/07 09:49:34;;;;;;;;;;;;;;;14.47;100.00;99011.88;5061586;28;20007;-56
2023/01/07 09:52:22;;;;;;;;;;;;;;;14.39;100.00;98994.09;5064723;28;19920;-56
2023/01/07 09:54:49;;;;;;;;;;;;;;;14.60;100.00;98974.97;5057447;28;19920;-56
2023/01/07 09:57:15;;;;;;;;;;;;;;;14.60;100.00;98967.19;5054694;28;19920;-56
2023/01/07 09:59:41;;;;;;;;;;;;;;;14.43;100.00;98964.53;5061266;28;20435;-56
2023/01/07 10:02:15;;;;;;;;;;;;;;;14.17;100.00;98958.84;5063763;28;19970;-56
2023/01/07 10:04:41;;;;;;;;;;;;;;;14.13;100.00;98966.84;5064910;28;19916;-55
2023/01/07 10:07:11;;;;;;;;;;;;;;;13.65;100.00;98975.97;5063169;28;20077;-57
2023/01/07 10:09:49;;;;;;;;;;;;;;;14.08;100.00;98985.19;5063168;28;19919;-55
2023/01/07 10:12:20;;;;;;;;;;;;;;;13.84;100.00;98970.78;5071089;28;20560;-57
2023/01/07 10:15:06;;;;;;;;;;;;;;;13.80;100.00;98960.59;5067494;28;19925;-60
2023/01/07 10:17:42;;;;;;;;;;;;;;;13.97;100.00;98970.16;5066345;28;20409;-59
2023/01/07 10:20:13;;;;;;;;;;;;;;;13.49;100.00;98974.06;5067677;28;19930;-60
2023/01/07 10:22:39;;;;;;;;;;;;;;;14.25;100.00;98973.19;5065624;28;20073;-71
2023/01/07 10:25:12;;;;;;;;;;;;;;;13.79;100.00;98948.53;5065410;28;20509;-56
2023/01/07 10:27:39;;;;;;;;;;;;;;;13.14;100.00;98926.44;5068063;28;19920;-57
2023/01/07 10:30:05;;;;;;;;;;;;;;;13.80;100.00;98949.41;5065977;28;19941;-58
2023/01/07 10:32:35;;;;;;;;;;;;;;;13.69;100.00;98931.75;5066613;28;20007;-45
2023/01/07 15:17:14;;;;;;;;;;;;;;;11.82;100.00;98903.41;5071268;28;20027;-75
2023/01/07 15:19:39;;;;;;;;;;;;;;;11.98;100.00;98840.00;5066610;28;20018;-75
2023/01/07 15:22:10;;;;;;;;;;;;;;;12.08;100.00;98781.09;5084385;28;19947;-75
2023/01/07 15:24:54;;;;;;;;;;;;;;;11.24;100.00;98719.09;5067302;28;19927;-77
2023/01/07 15:27:27;;;;;;;;;;;;;;;11.16;100.00;98697.94;5084369;28;19977;-76
2023/01/07 15:30:12;;;;;;;;;;;;;;;11.07;100.00;98693.97;5082598;28;20439;-75
2023/01/07 15:32:37;;;;;;;;;;;;;;;11.37;100.00;98682.50;5065090;28;19920;-75
2023/01/07 15:35:13;;;;;;;;;;;;;;;11.49;100.00;98679.44;5085082;28;19920;-74
2023/01/07 15:37:42;;;;;;;;;;;;;;;11.32;100.00;98640.63;5066627;28;19939;-76
2023/01/07 15:40:09;;;;;;;;;;;;;;;11.65;100.00;98649.53;5065584;28;20293;-76
2023/01/07 15:42:34;;;;;;;;;;;;;;;11.45;100.00;98624.59;5065523;28;19916;-76
2023/01/07 15:45:00;;;;;;;;;;;;;;;10.85;100.00;98601.22;5068208;28;19917;-76
2023/01/07 15:47:29;;;;;;;;;;;;;;;11.23;100.00;98614.31;5066271;28;19925;-76
2023/01/07 15:49:54;;;;;;;;;;;;;;;11.04;100.00;98610.81;5066107;28;19916;-75
2023/01/07 15:52:21;;;;;;;;;;;;;;;11.29;100.00;98611.50;5065741;28;19974;-74
2023/01/07 15:54:46;;;;;;;;;;;;;;;11.18;100.00;98597.38;5087027;28;19916;-74
2023/01/07 15:57:12;;;;;;;;;;;;;;;11.49;100.00;98605.50;5084883;28;19921;-75
2023/01/07 15:59:48;;;;;;;;;;;;;;;11.30;100.00;98579.63;5084124;28;19962;-75
2023/01/07 16:02:19;;;;;;;;;;;;;;;11.15;100.00;98582.84;5067024;28;20519;-74
2023/01/07 16:04:47;;;;;;;;;;;;;;;10.83;100.00;98571.25;5086793;28;19923;-74
2023/01/07 16:07:22;;;;;;;;;;;;;;;10.87;100.00;98589.13;5086705;28;19924;-74
2023/01/07 16:09:48;;;;;;;;;;;;;;;10.84;100.00;98576.38;5073181;28;19917;-74
2023/01/07 16:12:39;;;;;;;;;;;;;;;10.83;100.00;98587.59;5087390;28;19927;-74
2023/01/07 16:15:24;;;;;;;;;;;;;;;10.87;100.00;98589.13;5084056;28;19932;-75
2023/01/07 16:17:50;;;;;;;;;;;;;;;10.80;100.00;98582.53;5069100;28;19931;-74
2023/01/07 16:20:25;;;;;;;;;;;;;;;10.77;100.00;98582.66;5072983;28;19927;-74
2023/01/07 16:22:50;;;;;;;;;;;;;;;10.88;100.00;98595.97;5073089;28;19916;-75
2023/01/07 16:25:19;;;;;;;;;;;;;;;11.04;100.00;98603.09;5051741;28;19951;-75
2023/01/07 16:27:44;;;;;;;;;;;;;;;10.75;100.00;98589.63;5053657;28;20301;-74
2023/01/07 16:30:13;;;;;;;;;;;;;;;10.83;100.00;98587.59;5054342;28;19920;-75
2023/01/07 16:32:38;;;;;;;;;;;;;;;11.10;100.00;98585.59;5054870;28;19920;-75
2023/01/07 16:35:05;;;;;;;;;;;;;;;11.15;100.00;98576.84;5072318;28;19927;-75
2023/01/07 16:37:30;;;;;;;;;;;;;;;10.59;100.00;98557.63;5055789;28;19920;-75
2023/01/07 16:39:55;;;;;;;;;;;;;;;10.66;100.00;98565.06;5054501;28;19927;-74
2023/01/07 16:42:23;;;;;;;;;;;;;;;10.94;100.00;98568.28;5055531;28;19920;-75
2023/01/07 16:44:51;;;;;;;;;;;;;;;10.92;100.00;98557.19;5072156;28;19931;-74
2023/01/07 16:47:17;;;;;;;;;;;;;;;11.04;100.00;98565.25;5073527;28;19924;-74
2023/01/07 16:49:43;;;;;;;;;;;;;;;10.62;100.00;98548.03;5053726;28;19920;-75
2023/01/07 16:52:13;;;;;;;;;;;;;;;10.59;100.00;98547.34;5052228;28;19920;-75
2023/01/07 16:54:42;;;;;;;;;;;;;;;10.84;100.00;98558.34;5055314;28;19926;-74
2023/01/07 16:57:10;;;;;;;;;;;;;;;10.61;100.00;98551.53;5056431;28;19927;-75
2023/01/07 16:59:36;;;;;;;;;;;;;;;10.44;100.00;98559.06;5075447;28;19931;-75
2023/01/07 17:02:10;;;;;;;;;;;;;;;10.55;100.00;98568.94;5055819;28;20015;-75
2023/01/07 17:04:36;;;;;;;;;;;;;;;10.65;100.00;98562.53;5056376;28;19919;-75
2023/01/07 17:07:01;;;;;;;;;;;;;;;10.37;100.00;98557.63;5056857;28;20461;-75
2023/01/07 17:09:28;;;;;;;;;;;;;;;10.41;100.00;98560.00;5072664;28;19991;-75
2023/01/07 17:11:53;;;;;;;;;;;;;;;10.09;100.00;98547.50;5054453;28;19928;-75
2023/01/07 17:14:41;;;;;;;;;;;;;;;10.25;100.00;98553.75;5053340;28;19915;-75
2023/01/07 17:17:16;;;;;;;;;;;;;;;10.63;100.00;98554.06;5062220;28;19920;-75
2023/01/07 17:19:42;;;;;;;;;;;;;;;10.02;100.00;98536.59;5071283;28;19923;-75
2023/01/07 17:22:40;;;;;;;;;;;;;;;10.36;100.00;98556.78;5052950;28;20615;-75
2023/01/07 17:25:08;;;;;;;;;;;;;;;10.59;100.00;98552.50;5030269;28;19917;-75